sensor_id;sensor_type;location;lat;lon;timestamp;P1;durP1;ratioP1;P2;durP2;ratioP2
59907;SDS011;61804;54.926;73.496;2023-05-10T00:02:27;33.63;;;28.98;;
59907;SDS011;61804;54.926;73.496;2023-05-10T00:05:17;42.65;;;31.38;;
59907;SDS011;61804;54.926;73.496;2023-05-10T00:07:45;35.05;;;31.52;;
59907;SDS011;61804;54.926;73.496;2023-05-10T00:10:18;33.65;;;30.27;;
59907;SDS011;61804;54.926;73.496;2023-05-10T00:12:51;37.90;;;31.25;;
59907;SDS011;61804;54.926;73.496;2023-05-10T00:15:22;35.58;;;31.40;;
59907;SDS011;61804;54.926;73.496;2023-05-10T00:17:54;34.00;;;30.25;;
59907;SDS011;61804;54.926;73.496;2023-05-10T00:20:23;35.35;;;31.92;;
59907;SDS011;61804;54.926;73.496;2023-05-10T00:23:12;38.55;;;31.27;;
59907;SDS011;61804;54.926;73.496;2023-05-10T00:26:05;44.97;;;31.13;;
59907;SDS011;61804;54.926;73.496;2023-05-10T00:28:55;43.03;;;34.38;;
59907;SDS011;61804;54.926;73.496;2023-05-10T00:31:25;33.97;;;30.38;;
59907;SDS011;61804;54.926;73.496;2023-05-10T00:33:54;40.67;;;33.80;;
59907;SDS011;61804;54.926;73.496;2023-05-10T00:36:21;43.67;;;33.67;;
59907;SDS011;61804;54.926;73.496;2023-05-10T00:38:49;42.33;;;33.17;;
59907;SDS011;61804;54.926;73.496;2023-05-10T00:41:42;35.72;;;31.88;;
59907;SDS011;61804;54.926;73.496;2023-05-10T00:44:10;37.33;;;33.42;;
59907;SDS011;61804;54.926;73.496;2023-05-10T00:46:46;36.17;;;32.38;;
59907;SDS011;61804;54.926;73.496;2023-05-10T00:49:15;35.13;;;31.10;;
59907;SDS011;61804;54.926;73.496;2023-05-10T00:51:53;34.50;;;29.60;;
59907;SDS011;61804;54.926;73.496;2023-05-10T00:54:20;35.75;;;30.83;;
59907;SDS011;61804;54.926;73.496;2023-05-10T00:56:48;37.33;;;30.55;;
59907;SDS011;61804;54.926;73.496;2023-05-10T00:59:19;39.97;;;30.50;;
59907;SDS011;61804;54.926;73.496;2023-05-10T01:01:47;43.08;;;33.03;;
59907;SDS011;61804;54.926;73.496;2023-05-10T01:04:15;44.42;;;32.30;;
59907;SDS011;61804;54.926;73.496;2023-05-10T01:06:47;44.15;;;28.83;;
59907;SDS011;61804;54.926;73.496;2023-05-10T01:09:21;50.75;;;32.67;;
59907;SDS011;61804;54.926;73.496;2023-05-10T01:11:53;34.42;;;29.35;;
59907;SDS011;61804;54.926;73.496;2023-05-10T01:14:22;44.17;;;29.95;;
59907;SDS011;61804;54.926;73.496;2023-05-10T01:16:54;30.13;;;26.45;;
59907;SDS011;61804;54.926;73.496;2023-05-10T01:19:23;31.95;;;24.98;;
59907;SDS011;61804;54.926;73.496;2023-05-10T01:21:58;34.65;;;24.02;;
59907;SDS011;61804;54.926;73.496;2023-05-10T01:32:26;27.95;;;22.05;;
59907;SDS011;61804;54.926;73.496;2023-05-10T01:37:59;27.83;;;21.63;;
59907;SDS011;61804;54.926;73.496;2023-05-10T01:43:48;25.98;;;23.02;;
59907;SDS011;61804;54.926;73.496;2023-05-10T01:46:37;28.40;;;23.67;;
59907;SDS011;61804;54.926;73.496;2023-05-10T01:49:29;37.03;;;23.42;;
59907;SDS011;61804;54.926;73.496;2023-05-10T01:52:25;24.23;;;21.77;;
59907;SDS011;61804;54.926;73.496;2023-05-10T01:54:58;22.92;;;20.23;;
59907;SDS011;61804;54.926;73.496;2023-05-10T01:57:37;23.55;;;20.98;;
59907;SDS011;61804;54.926;73.496;2023-05-10T02:02:59;29.65;;;21.20;;
59907;SDS011;61804;54.926;73.496;2023-05-10T02:05:27;23.58;;;21.05;;
59907;SDS011;61804;54.926;73.496;2023-05-10T02:07:56;31.88;;;21.08;;
59907;SDS011;61804;54.926;73.496;2023-05-10T02:10:26;24.75;;;21.13;;
59907;SDS011;61804;54.926;73.496;2023-05-10T02:12:54;23.23;;;20.55;;
59907;SDS011;61804;54.926;73.496;2023-05-10T02:15:22;25.17;;;22.00;;
59907;SDS011;61804;54.926;73.496;2023-05-10T02:17:51;25.73;;;20.50;;
59907;SDS011;61804;54.926;73.496;2023-05-10T02:20:24;23.33;;;19.75;;
59907;SDS011;61804;54.926;73.496;2023-05-10T02:22:54;26.60;;;20.60;;
59907;SDS011;61804;54.926;73.496;2023-05-10T02:25:31;24.90;;;22.30;;
59907;SDS011;61804;54.926;73.496;2023-05-10T02:28:01;25.08;;;21.70;;
59907;SDS011;61804;54.926;73.496;2023-05-10T02:30:54;27.58;;;21.73;;
59907;SDS011;61804;54.926;73.496;2023-05-10T02:33:34;26.13;;;22.05;;
59907;SDS011;61804;54.926;73.496;2023-05-10T02:36:17;27.95;;;23.85;;
59907;SDS011;61804;54.926;73.496;2023-05-10T02:38:45;27.08;;;21.60;;
59907;SDS011;61804;54.926;73.496;2023-05-10T02:41:16;40.80;;;23.50;;
59907;SDS011;61804;54.926;73.496;2023-05-10T02:43:54;32.13;;;20.38;;
59907;SDS011;61804;54.926;73.496;2023-05-10T02:46:31;30.45;;;22.55;;
59907;SDS011;61804;54.926;73.496;2023-05-10T02:52:27;20.73;;;18.38;;
59907;SDS011;61804;54.926;73.496;2023-05-10T02:55:11;58.67;;;24.95;;
59907;SDS011;61804;54.926;73.496;2023-05-10T02:57:46;35.25;;;21.17;;
59907;SDS011;61804;54.926;73.496;2023-05-10T03:00:22;29.55;;;19.30;;
59907;SDS011;61804;54.926;73.496;2023-05-10T03:03:09;26.08;;;20.58;;
59907;SDS011;61804;54.926;73.496;2023-05-10T03:05:45;29.85;;;20.40;;
59907;SDS011;61804;54.926;73.496;2023-05-10T03:08:28;21.90;;;19.73;;
59907;SDS011;61804;54.926;73.496;2023-05-10T03:16:46;21.63;;;17.73;;
59907;SDS011;61804;54.926;73.496;2023-05-10T03:21:59;24.88;;;19.05;;
59907;SDS011;61804;54.926;73.496;2023-05-10T03:27:33;21.38;;;19.42;;
59907;SDS011;61804;54.926;73.496;2023-05-10T03:30:03;30.83;;;20.25;;
59907;SDS011;61804;54.926;73.496;2023-05-10T03:32:38;19.92;;;17.77;;
59907;SDS011;61804;54.926;73.496;2023-05-10T03:35:11;20.40;;;18.50;;
59907;SDS011;61804;54.926;73.496;2023-05-10T03:37:40;21.15;;;18.83;;
59907;SDS011;61804;54.926;73.496;2023-05-10T03:40:08;50.83;;;23.83;;
59907;SDS011;61804;54.926;73.496;2023-05-10T03:43:05;19.55;;;17.45;;
59907;SDS011;61804;54.926;73.496;2023-05-10T03:45:33;26.15;;;17.17;;
59907;SDS011;61804;54.926;73.496;2023-05-10T03:48:21;22.40;;;18.38;;
59907;SDS011;61804;54.926;73.496;2023-05-10T03:50:54;19.95;;;17.88;;
59907;SDS011;61804;54.926;73.496;2023-05-10T03:53:27;20.63;;;17.60;;
59907;SDS011;61804;54.926;73.496;2023-05-10T03:59:06;20.48;;;14.82;;
59907;SDS011;61804;54.926;73.496;2023-05-10T04:01:36;16.92;;;14.55;;
59907;SDS011;61804;54.926;73.496;2023-05-10T04:04:10;15.07;;;13.63;;
59907;SDS011;61804;54.926;73.496;2023-05-10T04:06:39;19.17;;;15.93;;
59907;SDS011;61804;54.926;73.496;2023-05-10T04:09:20;15.75;;;14.20;;
59907;SDS011;61804;54.926;73.496;2023-05-10T04:11:50;20.27;;;14.40;;
59907;SDS011;61804;54.926;73.496;2023-05-10T04:14:18;16.08;;;13.05;;
59907;SDS011;61804;54.926;73.496;2023-05-10T04:16:49;16.75;;;12.48;;
59907;SDS011;61804;54.926;73.496;2023-05-10T04:19:21;13.32;;;11.95;;
59907;SDS011;61804;54.926;73.496;2023-05-10T04:21:48;14.43;;;12.93;;
59907;SDS011;61804;54.926;73.496;2023-05-10T04:24:15;30.63;;;12.95;;
59907;SDS011;61804;54.926;73.496;2023-05-10T04:26:43;21.40;;;15.25;;
59907;SDS011;61804;54.926;73.496;2023-05-10T04:29:34;28.13;;;13.82;;
59907;SDS011;61804;54.926;73.496;2023-05-10T04:32:03;13.75;;;12.55;;
59907;SDS011;61804;54.926;73.496;2023-05-10T04:34:30;32.17;;;14.55;;
59907;SDS011;61804;54.926;73.496;2023-05-10T04:36:58;34.35;;;13.48;;
59907;SDS011;61804;54.926;73.496;2023-05-10T04:39:29;14.25;;;9.10;;
59907;SDS011;61804;54.926;73.496;2023-05-10T04:41:56;12.80;;;10.15;;
59907;SDS011;61804;54.926;73.496;2023-05-10T04:44:24;14.32;;;12.30;;
59907;SDS011;61804;54.926;73.496;2023-05-10T04:46:51;27.38;;;12.18;;
59907;SDS011;61804;54.926;73.496;2023-05-10T04:49:18;9.70;;;8.73;;
59907;SDS011;61804;54.926;73.496;2023-05-10T04:51:46;16.23;;;12.65;;
59907;SDS011;61804;54.926;73.496;2023-05-10T04:54:14;19.88;;;13.43;;
59907;SDS011;61804;54.926;73.496;2023-05-10T04:56:47;13.77;;;9.68;;
59907;SDS011;61804;54.926;73.496;2023-05-10T04:59:16;11.57;;;10.38;;
59907;SDS011;61804;54.926;73.496;2023-05-10T05:01:56;33.88;;;14.80;;
59907;SDS011;61804;54.926;73.496;2023-05-10T05:04:24;26.67;;;9.45;;
59907;SDS011;61804;54.926;73.496;2023-05-10T05:06:51;28.25;;;11.10;;
59907;SDS011;61804;54.926;73.496;2023-05-10T05:09:19;13.55;;;9.60;;
59907;SDS011;61804;54.926;73.496;2023-05-10T05:11:47;13.95;;;12.65;;
59907;SDS011;61804;54.926;73.496;2023-05-10T05:17:10;9.55;;;8.15;;
59907;SDS011;61804;54.926;73.496;2023-05-10T05:19:39;21.08;;;9.05;;
59907;SDS011;61804;54.926;73.496;2023-05-10T05:22:06;10.95;;;9.88;;
59907;SDS011;61804;54.926;73.496;2023-05-10T05:25:00;13.15;;;8.65;;
59907;SDS011;61804;54.926;73.496;2023-05-10T05:27:39;13.35;;;8.90;;
59907;SDS011;61804;54.926;73.496;2023-05-10T05:30:08;11.57;;;9.05;;
59907;SDS011;61804;54.926;73.496;2023-05-10T05:32:37;26.80;;;10.32;;
59907;SDS011;61804;54.926;73.496;2023-05-10T05:35:06;9.13;;;8.00;;
59907;SDS011;61804;54.926;73.496;2023-05-10T05:37:35;12.65;;;11.13;;
59907;SDS011;61804;54.926;73.496;2023-05-10T05:40:03;14.70;;;8.90;;
59907;SDS011;61804;54.926;73.496;2023-05-10T05:42:34;12.13;;;10.95;;
59907;SDS011;61804;54.926;73.496;2023-05-10T05:45:02;20.50;;;12.63;;
59907;SDS011;61804;54.926;73.496;2023-05-10T05:48:09;11.07;;;9.35;;
59907;SDS011;61804;54.926;73.496;2023-05-10T05:50:37;12.90;;;10.77;;
59907;SDS011;61804;54.926;73.496;2023-05-10T05:53:05;12.82;;;9.38;;
59907;SDS011;61804;54.926;73.496;2023-05-10T05:55:33;10.68;;;9.65;;
59907;SDS011;61804;54.926;73.496;2023-05-10T05:58:00;23.58;;;13.38;;
59907;SDS011;61804;54.926;73.496;2023-05-10T06:00:28;11.55;;;10.35;;
59907;SDS011;61804;54.926;73.496;2023-05-10T06:02:56;15.07;;;10.73;;
59907;SDS011;61804;54.926;73.496;2023-05-10T06:05:23;15.00;;;10.60;;
59907;SDS011;61804;54.926;73.496;2023-05-10T06:07:52;23.38;;;10.88;;
59907;SDS011;61804;54.926;73.496;2023-05-10T06:10:20;12.00;;;10.82;;
59907;SDS011;61804;54.926;73.496;2023-05-10T06:12:48;38.72;;;15.85;;
59907;SDS011;61804;54.926;73.496;2023-05-10T06:15:16;10.15;;;9.18;;
59907;SDS011;61804;54.926;73.496;2023-05-10T06:17:43;15.93;;;11.40;;
59907;SDS011;61804;54.926;73.496;2023-05-10T06:20:11;16.92;;;12.20;;
59907;SDS011;61804;54.926;73.496;2023-05-10T06:22:39;10.88;;;9.85;;
59907;SDS011;61804;54.926;73.496;2023-05-10T06:25:06;12.50;;;11.25;;
59907;SDS011;61804;54.926;73.496;2023-05-10T06:27:33;16.52;;;10.80;;
59907;SDS011;61804;54.926;73.496;2023-05-10T06:30:01;18.10;;;10.95;;
59907;SDS011;61804;54.926;73.496;2023-05-10T06:32:29;12.48;;;10.73;;
59907;SDS011;61804;54.926;73.496;2023-05-10T06:34:58;12.55;;;11.32;;
59907;SDS011;61804;54.926;73.496;2023-05-10T06:37:26;22.50;;;13.50;;
59907;SDS011;61804;54.926;73.496;2023-05-10T06:39:55;23.38;;;14.32;;
59907;SDS011;61804;54.926;73.496;2023-05-10T06:42:24;11.95;;;10.77;;
59907;SDS011;61804;54.926;73.496;2023-05-10T06:44:52;11.93;;;10.77;;
59907;SDS011;61804;54.926;73.496;2023-05-10T06:47:21;12.10;;;10.98;;
59907;SDS011;61804;54.926;73.496;2023-05-10T06:49:49;12.93;;;11.35;;
59907;SDS011;61804;54.926;73.496;2023-05-10T06:52:16;11.98;;;9.30;;
59907;SDS011;61804;54.926;73.496;2023-05-10T06:54:44;18.95;;;10.32;;
59907;SDS011;61804;54.926;73.496;2023-05-10T06:57:11;15.57;;;10.88;;
59907;SDS011;61804;54.926;73.496;2023-05-10T06:59:39;11.38;;;10.15;;
59907;SDS011;61804;54.926;73.496;2023-05-10T07:02:06;20.58;;;12.43;;
59907;SDS011;61804;54.926;73.496;2023-05-10T07:04:35;13.90;;;10.13;;
59907;SDS011;61804;54.926;73.496;2023-05-10T07:07:02;8.60;;;7.82;;
59907;SDS011;61804;54.926;73.496;2023-05-10T07:09:30;19.17;;;11.05;;
59907;SDS011;61804;54.926;73.496;2023-05-10T07:11:59;9.90;;;8.63;;
59907;SDS011;61804;54.926;73.496;2023-05-10T07:14:29;11.27;;;10.18;;
59907;SDS011;61804;54.926;73.496;2023-05-10T07:16:56;15.90;;;9.43;;
59907;SDS011;61804;54.926;73.496;2023-05-10T07:19:25;18.33;;;10.88;;
59907;SDS011;61804;54.926;73.496;2023-05-10T07:21:52;10.00;;;8.88;;
59907;SDS011;61804;54.926;73.496;2023-05-10T07:24:20;17.73;;;11.40;;
59907;SDS011;61804;54.926;73.496;2023-05-10T07:26:47;14.82;;;10.50;;
59907;SDS011;61804;54.926;73.496;2023-05-10T07:29:14;11.27;;;9.15;;
59907;SDS011;61804;54.926;73.496;2023-05-10T07:31:42;14.80;;;10.30;;
59907;SDS011;61804;54.926;73.496;2023-05-10T07:34:10;11.43;;;9.15;;
59907;SDS011;61804;54.926;73.496;2023-05-10T07:36:37;9.77;;;8.77;;
59907;SDS011;61804;54.926;73.496;2023-05-10T07:39:06;10.50;;;9.63;;
59907;SDS011;61804;54.926;73.496;2023-05-10T07:41:33;11.57;;;10.35;;
59907;SDS011;61804;54.926;73.496;2023-05-10T07:44:01;13.75;;;9.82;;
59907;SDS011;61804;54.926;73.496;2023-05-10T07:46:29;9.30;;;8.40;;
59907;SDS011;61804;54.926;73.496;2023-05-10T07:48:59;14.20;;;7.65;;
59907;SDS011;61804;54.926;73.496;2023-05-10T07:51:26;11.27;;;8.23;;
59907;SDS011;61804;54.926;73.496;2023-05-10T07:53:55;16.13;;;10.40;;
59907;SDS011;61804;54.926;73.496;2023-05-10T07:56:27;10.35;;;9.45;;
59907;SDS011;61804;54.926;73.496;2023-05-10T07:58:56;25.90;;;12.38;;
59907;SDS011;61804;54.926;73.496;2023-05-10T08:01:23;9.60;;;8.60;;
59907;SDS011;61804;54.926;73.496;2023-05-10T08:03:51;12.27;;;10.05;;
59907;SDS011;61804;54.926;73.496;2023-05-10T08:06:20;15.30;;;9.80;;
59907;SDS011;61804;54.926;73.496;2023-05-10T08:08:47;9.63;;;8.25;;
59907;SDS011;61804;54.926;73.496;2023-05-10T08:11:16;14.27;;;9.85;;
59907;SDS011;61804;54.926;73.496;2023-05-10T08:13:44;10.77;;;9.13;;
59907;SDS011;61804;54.926;73.496;2023-05-10T08:16:12;9.68;;;8.55;;
59907;SDS011;61804;54.926;73.496;2023-05-10T08:18:40;16.38;;;8.55;;
59907;SDS011;61804;54.926;73.496;2023-05-10T08:21:08;8.18;;;7.38;;
59907;SDS011;61804;54.926;73.496;2023-05-10T08:23:38;12.75;;;9.05;;
59907;SDS011;61804;54.926;73.496;2023-05-10T08:26:07;12.65;;;10.23;;
59907;SDS011;61804;54.926;73.496;2023-05-10T08:28:35;11.27;;;9.20;;
59907;SDS011;61804;54.926;73.496;2023-05-10T08:31:05;10.60;;;7.82;;
59907;SDS011;61804;54.926;73.496;2023-05-10T08:33:33;17.65;;;9.80;;
59907;SDS011;61804;54.926;73.496;2023-05-10T08:36:00;8.68;;;7.85;;
59907;SDS011;61804;54.926;73.496;2023-05-10T08:38:27;10.55;;;8.93;;
59907;SDS011;61804;54.926;73.496;2023-05-10T08:40:58;26.10;;;9.40;;
59907;SDS011;61804;54.926;73.496;2023-05-10T08:43:26;12.73;;;7.68;;
59907;SDS011;61804;54.926;73.496;2023-05-10T08:45:55;9.25;;;8.07;;
59907;SDS011;61804;54.926;73.496;2023-05-10T08:48:25;28.17;;;14.98;;
59907;SDS011;61804;54.926;73.496;2023-05-10T08:50:59;11.35;;;9.45;;
59907;SDS011;61804;54.926;73.496;2023-05-10T08:53:28;13.27;;;9.75;;
59907;SDS011;61804;54.926;73.496;2023-05-10T08:55:58;11.80;;;6.93;;
59907;SDS011;61804;54.926;73.496;2023-05-10T08:58:25;8.60;;;7.75;;
59907;SDS011;61804;54.926;73.496;2023-05-10T09:00:53;13.60;;;10.80;;
59907;SDS011;61804;54.926;73.496;2023-05-10T09:03:21;17.25;;;11.40;;
59907;SDS011;61804;54.926;73.496;2023-05-10T09:05:49;21.13;;;10.00;;
59907;SDS011;61804;54.926;73.496;2023-05-10T09:08:17;9.38;;;8.48;;
59907;SDS011;61804;54.926;73.496;2023-05-10T09:10:44;18.77;;;7.35;;
59907;SDS011;61804;54.926;73.496;2023-05-10T09:13:14;8.85;;;7.32;;
59907;SDS011;61804;54.926;73.496;2023-05-10T09:15:47;15.00;;;8.05;;
59907;SDS011;61804;54.926;73.496;2023-05-10T09:18:14;8.48;;;7.70;;
59907;SDS011;61804;54.926;73.496;2023-05-10T09:20:41;10.80;;;8.15;;
59907;SDS011;61804;54.926;73.496;2023-05-10T09:23:09;8.27;;;7.55;;
59907;SDS011;61804;54.926;73.496;2023-05-10T09:25:37;9.52;;;7.95;;
59907;SDS011;61804;54.926;73.496;2023-05-10T09:28:06;12.38;;;8.05;;
59907;SDS011;61804;54.926;73.496;2023-05-10T09:30:36;9.77;;;8.20;;
59907;SDS011;61804;54.926;73.496;2023-05-10T09:33:04;10.35;;;7.65;;
59907;SDS011;61804;54.926;73.496;2023-05-10T09:35:33;10.20;;;8.18;;
59907;SDS011;61804;54.926;73.496;2023-05-10T09:38:02;11.07;;;9.10;;
59907;SDS011;61804;54.926;73.496;2023-05-10T09:40:30;17.25;;;8.30;;
59907;SDS011;61804;54.926;73.496;2023-05-10T09:43:01;9.82;;;6.38;;
59907;SDS011;61804;54.926;73.496;2023-05-10T09:45:29;15.15;;;7.07;;
59907;SDS011;61804;54.926;73.496;2023-05-10T09:47:58;12.93;;;7.85;;
59907;SDS011;61804;54.926;73.496;2023-05-10T09:50:27;14.27;;;8.88;;
59907;SDS011;61804;54.926;73.496;2023-05-10T09:52:56;9.27;;;7.03;;
59907;SDS011;61804;54.926;73.496;2023-05-10T09:55:43;10.73;;;7.47;;
59907;SDS011;61804;54.926;73.496;2023-05-10T09:58:15;11.05;;;7.80;;
59907;SDS011;61804;54.926;73.496;2023-05-10T10:00:45;8.50;;;7.05;;
59907;SDS011;61804;54.926;73.496;2023-05-10T10:03:16;11.52;;;7.55;;
59907;SDS011;61804;54.926;73.496;2023-05-10T10:05:44;18.38;;;8.65;;
59907;SDS011;61804;54.926;73.496;2023-05-10T10:08:12;11.30;;;8.25;;
59907;SDS011;61804;54.926;73.496;2023-05-10T10:10:42;18.33;;;9.40;;
59907;SDS011;61804;54.926;73.496;2023-05-10T10:13:13;8.93;;;8.02;;
59907;SDS011;61804;54.926;73.496;2023-05-10T10:15:42;73.68;;;18.50;;
59907;SDS011;61804;54.926;73.496;2023-05-10T10:18:13;14.48;;;7.53;;
59907;SDS011;61804;54.926;73.496;2023-05-10T10:20:44;8.25;;;7.20;;
59907;SDS011;61804;54.926;73.496;2023-05-10T10:23:11;10.13;;;7.53;;
59907;SDS011;61804;54.926;73.496;2023-05-10T10:25:40;9.45;;;7.20;;
59907;SDS011;61804;54.926;73.496;2023-05-10T10:30:43;18.30;;;7.47;;
59907;SDS011;61804;54.926;73.496;2023-05-10T10:35:48;23.35;;;7.50;;
59907;SDS011;61804;54.926;73.496;2023-05-10T10:38:15;12.25;;;7.55;;
59907;SDS011;61804;54.926;73.496;2023-05-10T10:40:43;11.60;;;7.13;;
59907;SDS011;61804;54.926;73.496;2023-05-10T10:48:36;7.68;;;6.95;;
59907;SDS011;61804;54.926;73.496;2023-05-10T10:51:03;11.30;;;8.32;;
59907;SDS011;61804;54.926;73.496;2023-05-10T10:53:30;14.45;;;8.82;;
59907;SDS011;61804;54.926;73.496;2023-05-10T10:56:06;10.23;;;8.25;;
59907;SDS011;61804;54.926;73.496;2023-05-10T10:58:38;10.90;;;6.30;;
59907;SDS011;61804;54.926;73.496;2023-05-10T11:01:10;6.38;;;5.35;;
59907;SDS011;61804;54.926;73.496;2023-05-10T11:03:37;10.43;;;6.30;;
59907;SDS011;61804;54.926;73.496;2023-05-10T11:06:05;10.93;;;8.25;;
59907;SDS011;61804;54.926;73.496;2023-05-10T11:08:33;6.63;;;5.55;;
59907;SDS011;61804;54.926;73.496;2023-05-10T11:11:02;12.40;;;7.38;;
59907;SDS011;61804;54.926;73.496;2023-05-10T11:13:40;5.95;;;5.45;;
59907;SDS011;61804;54.926;73.496;2023-05-10T11:16:20;9.05;;;6.88;;
59907;SDS011;61804;54.926;73.496;2023-05-10T11:18:59;12.48;;;6.68;;
59907;SDS011;61804;54.926;73.496;2023-05-10T11:21:31;5.78;;;5.28;;
59907;SDS011;61804;54.926;73.496;2023-05-10T11:24:00;11.20;;;8.10;;
59907;SDS011;61804;54.926;73.496;2023-05-10T11:26:33;11.52;;;7.07;;
59907;SDS011;61804;54.926;73.496;2023-05-10T11:29:01;13.65;;;6.53;;
59907;SDS011;61804;54.926;73.496;2023-05-10T11:31:32;11.15;;;7.18;;
59907;SDS011;61804;54.926;73.496;2023-05-10T11:34:00;16.05;;;6.18;;
59907;SDS011;61804;54.926;73.496;2023-05-10T11:36:32;7.78;;;5.57;;
59907;SDS011;61804;54.926;73.496;2023-05-10T11:38:59;7.85;;;6.10;;
59907;SDS011;61804;54.926;73.496;2023-05-10T11:41:28;6.72;;;5.05;;
59907;SDS011;61804;54.926;73.496;2023-05-10T11:43:55;6.05;;;4.72;;
59907;SDS011;61804;54.926;73.496;2023-05-10T11:46:24;6.50;;;5.43;;
59907;SDS011;61804;54.926;73.496;2023-05-10T11:48:52;12.48;;;7.15;;
59907;SDS011;61804;54.926;73.496;2023-05-10T11:51:24;9.98;;;5.13;;
59907;SDS011;61804;54.926;73.496;2023-05-10T11:53:54;11.43;;;6.07;;
59907;SDS011;61804;54.926;73.496;2023-05-10T11:56:22;11.80;;;7.40;;
59907;SDS011;61804;54.926;73.496;2023-05-10T11:58:56;9.02;;;5.50;;
59907;SDS011;61804;54.926;73.496;2023-05-10T12:01:26;5.97;;;5.47;;
59907;SDS011;61804;54.926;73.496;2023-05-10T12:04:03;7.88;;;5.68;;
59907;SDS011;61804;54.926;73.496;2023-05-10T12:06:32;8.30;;;7.00;;
59907;SDS011;61804;54.926;73.496;2023-05-10T12:09:06;11.13;;;6.25;;
59907;SDS011;61804;54.926;73.496;2023-05-10T12:12:03;7.70;;;5.47;;
59907;SDS011;61804;54.926;73.496;2023-05-10T12:14:35;9.10;;;6.55;;
59907;SDS011;61804;54.926;73.496;2023-05-10T12:17:03;26.67;;;7.25;;
59907;SDS011;61804;54.926;73.496;2023-05-10T12:19:43;6.38;;;5.72;;
59907;SDS011;61804;54.926;73.496;2023-05-10T12:22:10;12.20;;;6.55;;
59907;SDS011;61804;54.926;73.496;2023-05-10T12:24:38;14.90;;;5.90;;
59907;SDS011;61804;54.926;73.496;2023-05-10T12:27:07;6.15;;;5.43;;
59907;SDS011;61804;54.926;73.496;2023-05-10T12:29:35;8.52;;;5.38;;
59907;SDS011;61804;54.926;73.496;2023-05-10T12:32:04;13.95;;;5.85;;
59907;SDS011;61804;54.926;73.496;2023-05-10T12:34:32;8.02;;;6.20;;
59907;SDS011;61804;54.926;73.496;2023-05-10T12:37:00;7.32;;;4.32;;
59907;SDS011;61804;54.926;73.496;2023-05-10T12:39:53;9.55;;;6.60;;
59907;SDS011;61804;54.926;73.496;2023-05-10T12:42:21;13.60;;;10.70;;
59907;SDS011;61804;54.926;73.496;2023-05-10T12:44:48;8.02;;;7.30;;
59907;SDS011;61804;54.926;73.496;2023-05-10T12:47:17;20.85;;;8.50;;
59907;SDS011;61804;54.926;73.496;2023-05-10T12:49:45;17.38;;;11.23;;
59907;SDS011;61804;54.926;73.496;2023-05-10T12:52:13;13.85;;;10.70;;
59907;SDS011;61804;54.926;73.496;2023-05-10T12:54:41;16.55;;;9.40;;
59907;SDS011;61804;54.926;73.496;2023-05-10T12:57:09;13.27;;;8.00;;
59907;SDS011;61804;54.926;73.496;2023-05-10T12:59:37;10.85;;;7.20;;
59907;SDS011;61804;54.926;73.496;2023-05-10T13:02:06;19.08;;;11.25;;
59907;SDS011;61804;54.926;73.496;2023-05-10T13:04:36;37.10;;;12.77;;
59907;SDS011;61804;54.926;73.496;2023-05-10T13:07:10;35.22;;;21.17;;
59907;SDS011;61804;54.926;73.496;2023-05-10T13:09:38;31.25;;;15.40;;
59907;SDS011;61804;54.926;73.496;2023-05-10T13:12:05;8.77;;;6.38;;
59907;SDS011;61804;54.926;73.496;2023-05-10T13:14:33;40.30;;;17.38;;
59907;SDS011;61804;54.926;73.496;2023-05-10T13:17:01;28.30;;;15.55;;
59907;SDS011;61804;54.926;73.496;2023-05-10T13:19:29;33.45;;;17.25;;
59907;SDS011;61804;54.926;73.496;2023-05-10T13:21:57;42.78;;;21.55;;
59907;SDS011;61804;54.926;73.496;2023-05-10T13:24:26;34.05;;;19.67;;
59907;SDS011;61804;54.926;73.496;2023-05-10T13:26:54;36.95;;;20.05;;
59907;SDS011;61804;54.926;73.496;2023-05-10T13:29:21;19.40;;;9.00;;
59907;SDS011;61804;54.926;73.496;2023-05-10T13:31:49;9.40;;;6.18;;
59907;SDS011;61804;54.926;73.496;2023-05-10T13:34:18;12.13;;;7.78;;
59907;SDS011;61804;54.926;73.496;2023-05-10T13:36:47;14.65;;;8.25;;
59907;SDS011;61804;54.926;73.496;2023-05-10T13:39:15;24.00;;;14.95;;
59907;SDS011;61804;54.926;73.496;2023-05-10T13:41:44;21.77;;;11.95;;
59907;SDS011;61804;54.926;73.496;2023-05-10T13:44:12;10.77;;;9.68;;
59907;SDS011;61804;54.926;73.496;2023-05-10T13:46:40;15.30;;;9.40;;
59907;SDS011;61804;54.926;73.496;2023-05-10T13:49:09;14.75;;;10.88;;
59907;SDS011;61804;54.926;73.496;2023-05-10T13:51:37;23.88;;;10.40;;
59907;SDS011;61804;54.926;73.496;2023-05-10T13:54:05;13.70;;;10.13;;
59907;SDS011;61804;54.926;73.496;2023-05-10T13:56:35;22.67;;;10.70;;
59907;SDS011;61804;54.926;73.496;2023-05-10T13:59:03;17.52;;;12.95;;
59907;SDS011;61804;54.926;73.496;2023-05-10T14:01:31;37.75;;;16.30;;
59907;SDS011;61804;54.926;73.496;2023-05-10T14:03:59;44.95;;;14.73;;
59907;SDS011;61804;54.926;73.496;2023-05-10T14:07:34;34.80;;;17.42;;
59907;SDS011;61804;54.926;73.496;2023-05-10T14:10:03;28.70;;;19.35;;
59907;SDS011;61804;54.926;73.496;2023-05-10T14:12:31;36.58;;;18.17;;
59907;SDS011;61804;54.926;73.496;2023-05-10T14:14:58;22.30;;;17.45;;
59907;SDS011;61804;54.926;73.496;2023-05-10T14:17:26;30.38;;;12.38;;
59907;SDS011;61804;54.926;73.496;2023-05-10T14:19:54;11.60;;;10.23;;
59907;SDS011;61804;54.926;73.496;2023-05-10T14:22:22;24.70;;;12.88;;
59907;SDS011;61804;54.926;73.496;2023-05-10T14:25:14;21.67;;;11.98;;
59907;SDS011;61804;54.926;73.496;2023-05-10T14:27:42;31.05;;;15.55;;
59907;SDS011;61804;54.926;73.496;2023-05-10T14:30:10;35.95;;;18.73;;
59907;SDS011;61804;54.926;73.496;2023-05-10T14:32:38;24.35;;;15.90;;
59907;SDS011;61804;54.926;73.496;2023-05-10T14:35:08;28.27;;;16.52;;
59907;SDS011;61804;54.926;73.496;2023-05-10T14:38:02;25.27;;;18.13;;
59907;SDS011;61804;54.926;73.496;2023-05-10T14:40:30;32.83;;;18.02;;
59907;SDS011;61804;54.926;73.496;2023-05-10T14:43:00;26.17;;;20.58;;
59907;SDS011;61804;54.926;73.496;2023-05-10T14:45:28;37.90;;;25.30;;
59907;SDS011;61804;54.926;73.496;2023-05-10T14:47:56;49.42;;;31.38;;
59907;SDS011;61804;54.926;73.496;2023-05-10T14:50:52;57.13;;;33.20;;
59907;SDS011;61804;54.926;73.496;2023-05-10T14:53:20;47.17;;;28.27;;
59907;SDS011;61804;54.926;73.496;2023-05-10T14:55:47;43.90;;;26.20;;
59907;SDS011;61804;54.926;73.496;2023-05-10T14:58:40;41.15;;;25.65;;
59907;SDS011;61804;54.926;73.496;2023-05-10T15:01:07;33.97;;;23.00;;
59907;SDS011;61804;54.926;73.496;2023-05-10T15:03:35;37.10;;;23.05;;
59907;SDS011;61804;54.926;73.496;2023-05-10T15:06:03;38.55;;;20.95;;
59907;SDS011;61804;54.926;73.496;2023-05-10T15:08:49;41.75;;;20.02;;
59907;SDS011;61804;54.926;73.496;2023-05-10T15:11:18;48.40;;;24.23;;
59907;SDS011;61804;54.926;73.496;2023-05-10T15:13:49;28.20;;;16.63;;
59907;SDS011;61804;54.926;73.496;2023-05-10T15:16:17;43.97;;;21.05;;
59907;SDS011;61804;54.926;73.496;2023-05-10T15:18:45;69.57;;;28.63;;
59907;SDS011;61804;54.926;73.496;2023-05-10T15:21:12;41.90;;;20.98;;
59907;SDS011;61804;54.926;73.496;2023-05-10T15:23:40;34.58;;;19.52;;
59907;SDS011;61804;54.926;73.496;2023-05-10T15:26:08;44.65;;;22.77;;
59907;SDS011;61804;54.926;73.496;2023-05-10T15:28:35;65.68;;;40.35;;